Time;durP1;ratioP1;P1;durP2;ratioP2;P2;SDS_P1;SDS_P2;PMS_P1;PMS_P2;Temp;Humidity;BMP_temperature;BMP_pressure;BME280_temperature;BME280_humidity;BME280_pressure;Samples;Min_cycle;Max_cycle;Signal;HPM_P1;HPM_P2
2022/12/11 00:02:07;;;;;;;4.53;2.92;;;;;;;;;;5031371;28;20529;-66
2022/12/11 00:04:37;;;;;;;5.78;3.15;;;;;;;;;;5012662;28;20502;-66
2022/12/11 00:07:06;;;;;;;6.32;3.20;;;;;;;;;;5031593;28;20053;-66
2022/12/11 00:09:36;;;;;;;7.93;2.53;;;;;;;;;;5031232;28;20401;-66
2022/12/11 00:12:06;;;;;;;5.82;2.70;;;;;;;;;;5029222;28;20053;-66
2022/12/11 00:14:36;;;;;;;7.13;2.60;;;;;;;;;;5028689;28;20060;-66
2022/12/11 00:17:05;;;;;;;6.78;2.63;;;;;;;;;;5029922;28;20049;-66
2022/12/11 00:19:35;;;;;;;5.38;2.28;;;;;;;;;;5031065;28;20052;-66
2022/12/11 00:22:05;;;;;;;6.43;2.50;;;;;;;;;;5030821;28;20042;-66
2022/12/11 00:24:34;;;;;;;7.97;2.75;;;;;;;;;;5030791;28;20045;-66
2022/12/11 00:27:04;;;;;;;8.75;2.78;;;;;;;;;;5028818;28;20053;-65
2022/12/11 00:29:34;;;;;;;11.15;3.00;;;;;;;;;;4998445;28;20049;-66
2022/12/11 00:32:05;;;;;;;4.68;2.88;;;;;;;;;;4998795;28;20053;-66
2022/12/11 00:34:35;;;;;;;5.00;2.63;;;;;;;;;;4982090;28;20052;-66
2022/12/11 00:37:04;;;;;;;6.70;2.38;;;;;;;;;;5048225;28;20519;-66
2022/12/11 00:39:35;;;;;;;7.53;2.75;;;;;;;;;;5014708;28;20064;-66
2022/12/11 00:42:06;;;;;;;5.82;2.72;;;;;;;;;;5048182;28;20064;-66
2022/12/11 00:44:37;;;;;;;10.77;3.05;;;;;;;;;;5048103;28;20056;-66
2022/12/11 00:47:07;;;;;;;4.57;2.10;;;;;;;;;;5014887;28;20432;-66
2022/12/11 00:49:38;;;;;;;8.43;2.28;;;;;;;;;;4998376;28;20687;-66
2022/12/11 00:52:13;;;;;;;4.30;2.53;;;;;;;;;;5048919;28;20048;-66
2022/12/11 00:54:42;;;;;;;7.07;2.17;;;;;;;;;;5047783;28;20426;-66
2022/12/11 00:57:12;;;;;;;6.40;2.10;;;;;;;;;;5047876;28;20390;-66
2022/12/11 00:59:42;;;;;;;6.15;2.72;;;;;;;;;;5031560;28;20053;-66
2022/12/11 01:02:11;;;;;;;9.98;2.70;;;;;;;;;;5048148;28;20092;-67
2022/12/11 01:04:41;;;;;;;7.38;2.30;;;;;;;;;;5047855;28;20727;-64
2022/12/11 01:07:10;;;;;;;8.43;2.60;;;;;;;;;;5021880;28;20065;-67
2022/12/11 01:12:28;;;;;;;9.98;2.90;;;;;;;;;;4975636;28;20043;-66
2022/12/11 01:14:58;;;;;;;5.45;2.22;;;;;;;;;;5008366;28;20576;-66
2022/12/11 01:17:27;;;;;;;5.18;2.70;;;;;;;;;;5041169;28;20050;-66
2022/12/11 01:19:57;;;;;;;9.25;3.25;;;;;;;;;;5040524;28;20062;-67
2022/12/11 01:22:27;;;;;;;10.90;2.70;;;;;;;;;;5041289;28;20050;-66
2022/12/11 01:24:58;;;;;;;6.20;2.65;;;;;;;;;;5007944;28;20061;-67
2022/12/11 01:27:27;;;;;;;5.32;2.67;;;;;;;;;;5008337;28;20050;-66
2022/12/11 01:29:57;;;;;;;7.28;2.90;;;;;;;;;;5008034;28;20506;-66
2022/12/11 01:32:27;;;;;;;7.53;2.75;;;;;;;;;;5011060;28;20177;-66
2022/12/11 01:34:58;;;;;;;4.97;2.75;;;;;;;;;;5030615;28;20057;-66
2022/12/11 01:37:27;;;;;;;7.32;2.90;;;;;;;;;;5014882;28;20053;-65
2022/12/11 01:39:57;;;;;;;10.25;2.45;;;;;;;;;;5031448;28;20414;-66
2022/12/11 01:42:28;;;;;;;8.35;2.88;;;;;;;;;;4998211;28;20045;-67
2022/12/11 01:45:37;;;;;;;5.82;2.88;;;;;;;;;;5047375;28;20053;-66
2022/12/11 01:48:16;;;;;;;8.73;3.47;;;;;;;;;;5031223;28;20053;-66
2022/12/11 01:50:56;;;;;;;5.15;3.13;;;;;;;;;;5030401;28;20053;-67
2022/12/11 01:53:33;;;;;;;7.03;2.90;;;;;;;;;;5034113;28;20045;-67
2022/12/11 01:56:05;;;;;;;6.10;3.28;;;;;;;;;;5051006;28;20075;-65
2022/12/11 01:58:39;;;;;;;;;;;;;;;;;;5051617;28;20048;-66
2022/12/11 02:01:14;;;;;;;6.20;2.22;;;;;;;;;;5050971;28;20273;-66
2022/12/11 02:03:44;;;;;;;8.50;2.85;;;;;;;;;;5034041;28;20041;-67
2022/12/11 02:06:50;;;;;;;5.25;2.95;;;;;;;;;;5050874;28;20053;-66
2022/12/11 02:09:27;;;;;;;5.97;3.15;;;;;;;;;;5030716;28;20061;-67
2022/12/11 02:12:16;;;;;;;9.55;3.50;;;;;;;;;;5033267;28;20049;-67
2022/12/11 02:15:31;;;;;;;7.20;3.15;;;;;;;;;;5014565;28;20060;-67
2022/12/11 02:18:18;;;;;;;10.70;2.80;;;;;;;;;;4978069;28;20046;-66
2022/12/11 02:21:12;;;;;;;12.32;4.22;;;;;;;;;;5025814;28;20058;-66
2022/12/11 02:23:57;;;;;;;8.65;3.42;;;;;;;;;;4978384;28;20457;-66
2022/12/11 02:26:41;;;;;;;12.93;4.43;;;;;;;;;;5011006;28;20050;-67
2022/12/11 02:29:19;;;;;;;9.07;4.00;;;;;;;;;;4990752;28;20057;-67
2022/12/11 02:32:00;;;;;;;7.07;3.45;;;;;;;;;;4991232;28;20058;-66
2022/12/11 02:34:50;;;;;;;7.88;4.20;;;;;;;;;;4990978;28;20063;-67
2022/12/11 02:37:22;;;;;;;;;;;;;;;;;;4991393;28;20506;-67
2022/12/11 02:39:54;;;;;;;8.65;3.70;;;;;;;;;;4990826;28;19928;-67
2022/12/11 02:42:29;;;;;;;9.52;4.07;;;;;;;;;;4990729;28;20062;-67
2022/12/11 02:45:02;;;;;;;7.40;4.28;;;;;;;;;;4970929;28;20058;-67
2022/12/11 02:47:32;;;;;;;6.55;3.67;;;;;;;;;;4971280;28;20055;-66
2022/12/11 02:50:11;;;;;;;11.02;3.63;;;;;;;;;;4971312;28;20062;-67
2022/12/11 02:52:43;;;;;;;5.05;3.67;;;;;;;;;;4970735;28;20054;-67
2022/12/11 02:55:15;;;;;;;7.57;4.47;;;;;;;;;;4970996;28;20063;-66
2022/12/11 02:57:54;;;;;;;12.02;3.83;;;;;;;;;;4971260;28;20550;-66
2022/12/11 03:00:24;;;;;;;5.35;3.33;;;;;;;;;;4923405;28;20070;-67
2022/12/11 03:02:54;;;;;;;7.22;3.33;;;;;;;;;;4971060;28;20518;-66
2022/12/11 03:05:25;;;;;;;9.18;3.58;;;;;;;;;;4971319;28;20047;-66
2022/12/11 03:07:56;;;;;;;5.70;3.28;;;;;;;;;;4989509;28;20062;-66
2022/12/11 03:10:25;;;;;;;9.23;3.10;;;;;;;;;;5009842;28;20054;-67
2022/12/11 03:12:57;;;;;;;9.23;3.55;;;;;;;;;;4993558;28;20057;-66
2022/12/11 03:15:49;;;;;;;7.88;3.40;;;;;;;;;;5009878;28;20065;-67
2022/12/11 03:18:34;;;;;;;8.07;3.28;;;;;;;;;;4951458;29;20059;-67
2022/12/11 03:21:14;;;;;;;7.18;3.08;;;;;;;;;;4935315;29;20055;-68
2022/12/11 03:23:54;;;;;;;6.72;3.47;;;;;;;;;;4951506;29;20067;-67
2022/12/11 03:26:24;;;;;;;9.90;3.28;;;;;;;;;;4935222;29;20570;-67
2022/12/11 03:29:19;;;;;;;6.63;3.50;;;;;;;;;;4950966;29;20055;-67
2022/12/11 03:32:03;;;;;;;11.75;3.45;;;;;;;;;;4967081;28;20416;-67
2022/12/11 03:34:54;;;;;;;10.80;3.78;;;;;;;;;;4931735;29;20052;-68
2022/12/11 03:37:30;;;;;;;8.40;3.85;;;;;;;;;;4916242;29;20051;-67
2022/12/11 03:40:06;;;;;;;7.57;3.60;;;;;;;;;;4931685;29;20070;-67
2022/12/11 03:42:38;;;;;;;6.20;3.17;;;;;;;;;;4965252;28;20419;-68
2022/12/11 03:45:09;;;;;;;6.45;3.45;;;;;;;;;;4919013;29;20051;-67
2022/12/11 03:47:42;;;;;;;5.32;3.40;;;;;;;;;;4951149;28;20090;-67
2022/12/11 03:50:15;;;;;;;6.78;3.78;;;;;;;;;;4919357;29;20052;-66
2022/12/11 03:52:46;;;;;;;5.82;3.13;;;;;;;;;;4950934;29;20200;-67
2022/12/11 03:55:18;;;;;;;7.50;3.22;;;;;;;;;;4973288;28;20186;-67
2022/12/11 03:57:48;;;;;;;;;;;;;;;;;;5009204;28;20049;-67
2022/12/11 04:00:19;;;;;;;7.68;3.42;;;;;;;;;;5009003;28;19925;-67
2022/12/11 04:05:50;;;;;;;7.13;3.70;;;;;;;;;;5009306;28;20065;-66
2022/12/11 04:08:21;;;;;;;7.57;3.65;;;;;;;;;;5008958;28;20502;-67
2022/12/11 04:13:41;;;;;;;10.40;3.67;;;;;;;;;;5031155;28;20041;-66
2022/12/11 04:16:11;;;;;;;8.13;3.65;;;;;;;;;;5031376;28;20045;-66
2022/12/11 04:24:17;;;;;;;6.47;3.08;;;;;;;;;;5031261;28;20045;-66
2022/12/11 04:26:47;;;;;;;10.00;3.60;;;;;;;;;;5031221;28;20045;-66
2022/12/11 04:29:17;;;;;;;5.18;3.10;;;;;;;;;;5028600;28;20085;-66
2022/12/11 04:31:46;;;;;;;10.68;3.17;;;;;;;;;;5030965;28;20049;-66
2022/12/11 04:34:16;;;;;;;6.32;3.00;;;;;;;;;;5031041;28;20068;-67
2022/12/11 04:36:46;;;;;;;6.72;3.22;;;;;;;;;;5030631;28;20080;-66
2022/12/11 04:39:16;;;;;;;7.88;3.20;;;;;;;;;;5012144;28;20061;-66
2022/12/11 04:41:45;;;;;;;6.93;2.90;;;;;;;;;;5030613;28;20117;-66
2022/12/11 04:44:15;;;;;;;5.60;3.30;;;;;;;;;;5030984;28;20478;-66
2022/12/11 04:46:45;;;;;;;6.60;2.95;;;;;;;;;;5078210;28;20068;-66
2022/12/11 04:49:14;;;;;;;7.80;3.13;;;;;;;;;;5028465;28;20497;-66
2022/12/11 04:51:44;;;;;;;6.13;3.28;;;;;;;;;;5030678;28;20478;-66
2022/12/11 04:54:13;;;;;;;7.00;2.97;;;;;;;;;;5011794;28;20061;-66
2022/12/11 04:56:43;;;;;;;4.38;2.85;;;;;;;;;;5028096;28;20425;-66
2022/12/11 04:59:13;;;;;;;9.90;3.70;;;;;;;;;;5011932;28;20490;-66
2022/12/11 05:01:43;;;;;;;6.80;3.03;;;;;;;;;;5044682;28;20049;-66
2022/12/11 05:04:13;;;;;;;9.52;3.30;;;;;;;;;;5028361;28;20061;-66
2022/12/11 05:06:43;;;;;;;9.82;4.53;;;;;;;;;;5030563;28;20041;-66
2022/12/11 05:09:13;;;;;;;5.75;3.25;;;;;;;;;;5034091;28;20046;-66
2022/12/11 05:11:43;;;;;;;10.02;3.42;;;;;;;;;;5015669;28;20516;-66
2022/12/11 05:14:13;;;;;;;7.28;3.47;;;;;;;;;;5048376;28;20049;-66
2022/12/11 05:16:42;;;;;;;8.10;3.30;;;;;;;;;;5034666;28;20045;-66
2022/12/11 05:19:12;;;;;;;9.63;3.00;;;;;;;;;;5065029;28;20505;-66
2022/12/11 05:21:42;;;;;;;7.75;2.92;;;;;;;;;;5034625;28;20405;-67
2022/12/11 05:24:12;;;;;;;9.25;3.13;;;;;;;;;;5015435;28;20050;-66
2022/12/11 05:26:41;;;;;;;10.68;3.67;;;;;;;;;;5034465;28;20068;-66
2022/12/11 05:29:11;;;;;;;6.68;3.20;;;;;;;;;;5034128;28;20504;-66
2022/12/11 05:31:41;;;;;;;7.38;3.40;;;;;;;;;;5015162;28;20055;-67
2022/12/11 05:34:11;;;;;;;8.50;3.40;;;;;;;;;;4998394;28;20064;-66
2022/12/11 05:36:41;;;;;;;6.45;3.03;;;;;;;;;;5015548;28;20072;-67
2022/12/11 05:39:11;;;;;;;7.00;3.55;;;;;;;;;;5033998;28;20052;-66
2022/12/11 05:41:40;;;;;;;5.85;3.50;;;;;;;;;;5033046;28;20041;-67
2022/12/11 05:44:12;;;;;;;9.18;3.10;;;;;;;;;;5064918;28;20514;-66
2022/12/11 05:46:42;;;;;;;7.65;3.50;;;;;;;;;;5034169;28;20048;-67
2022/12/11 05:49:12;;;;;;;6.97;3.50;;;;;;;;;;4998283;28;20064;-66
2022/12/11 05:51:47;;;;;;;9.80;3.65;;;;;;;;;;5015282;28;20054;-67
2022/12/11 05:54:16;;;;;;;8.98;3.40;;;;;;;;;;5014944;28;20053;-67
2022/12/11 05:56:50;;;;;;;5.38;3.10;;;;;;;;;;5048108;28;20061;-67
2022/12/11 05:59:20;;;;;;;8.70;3.53;;;;;;;;;;5033469;28;20052;-67
2022/12/11 06:01:50;;;;;;;10.80;3.40;;;;;;;;;;5014923;28;20497;-68
2022/12/11 06:04:19;;;;;;;8.70;2.92;;;;;;;;;;5014867;28;20425;-67
2022/12/11 06:06:49;;;;;;;7.20;3.60;;;;;;;;;;5047861;28;20049;-69
2022/12/11 06:09:19;;;;;;;6.75;3.30;;;;;;;;;;5014097;28;20489;-67
2022/12/11 06:11:48;;;;;;;5.93;3.38;;;;;;;;;;5033615;28;20061;-67
2022/12/11 06:14:18;;;;;;;8.80;3.65;;;;;;;;;;4994140;28;20449;-68
2022/12/11 06:16:48;;;;;;;6.00;3.55;;;;;;;;;;5010982;28;20057;-67
2022/12/11 06:19:18;;;;;;;5.32;3.50;;;;;;;;;;5043034;28;20569;-67
2022/12/11 06:21:48;;;;;;;8.80;3.45;;;;;;;;;;5043845;28;20502;-66
2022/12/11 06:24:18;;;;;;;9.85;3.50;;;;;;;;;;5010884;28;20536;-66
2022/12/11 06:26:48;;;;;;;8.93;3.28;;;;;;;;;;4962097;28;20057;-67
2022/12/11 06:29:18;;;;;;;4.78;3.13;;;;;;;;;;4978166;28;20065;-66
2022/12/11 06:31:47;;;;;;;10.32;3.63;;;;;;;;;;5010837;28;20165;-67
2022/12/11 06:34:18;;;;;;;7.22;3.00;;;;;;;;;;4971372;28;20059;-67
2022/12/11 06:36:48;;;;;;;8.23;3.20;;;;;;;;;;4971358;28;20054;-68
2022/12/11 06:39:17;;;;;;;7.72;3.33;;;;;;;;;;4971366;28;20542;-67
2022/12/11 06:41:47;;;;;;;12.63;3.28;;;;;;;;;;4955627;28;20503;-66
2022/12/11 06:44:17;;;;;;;9.10;3.20;;;;;;;;;;4971477;28;20534;-67
2022/12/11 06:46:46;;;;;;;8.23;3.83;;;;;;;;;;4971478;28;20054;-67
2022/12/11 06:49:16;;;;;;;6.45;3.85;;;;;;;;;;4954877;28;20058;-67
2022/12/11 06:51:45;;;;;;;8.25;3.97;;;;;;;;;;4979500;28;20491;-67
2022/12/11 06:54:15;;;;;;;7.65;3.83;;;;;;;;;;4974411;28;20530;-67
2022/12/11 06:56:45;;;;;;;7.53;3.10;;;;;;;;;;4990474;28;20053;-67
2022/12/11 06:59:14;;;;;;;6.20;2.95;;;;;;;;;;4990648;28;20050;-67
2022/12/11 07:01:44;;;;;;;6.35;3.22;;;;;;;;;;4958229;28;20506;-68
2022/12/11 07:04:14;;;;;;;5.43;2.75;;;;;;;;;;4998966;28;20395;-67
2022/12/11 07:06:46;;;;;;;7.15;3.50;;;;;;;;;;4984416;28;20061;-66
2022/12/11 07:09:16;;;;;;;7.43;3.58;;;;;;;;;;5049843;28;20053;-67
2022/12/11 07:11:48;;;;;;;7.25;3.05;;;;;;;;;;5032782;28;20063;-68
2022/12/11 07:14:18;;;;;;;7.78;3.30;;;;;;;;;;5016623;28;20049;-68
2022/12/11 07:16:49;;;;;;;7.68;3.85;;;;;;;;;;5049600;28;20128;-67
2022/12/11 07:19:19;;;;;;;6.88;4.20;;;;;;;;;;5000140;28;20065;-67
2022/12/11 07:21:48;;;;;;;6.93;2.53;;;;;;;;;;5033326;28;20425;-67
2022/12/11 07:24:18;;;;;;;6.13;3.50;;;;;;;;;;5049395;28;20067;-68
2022/12/11 07:26:48;;;;;;;9.23;3.28;;;;;;;;;;5041415;28;20061;-66
2022/12/11 07:29:17;;;;;;;10.82;3.45;;;;;;;;;;5032132;28;20045;-67
2022/12/11 07:31:47;;;;;;;10.20;4.05;;;;;;;;;;5062463;28;20057;-67
2022/12/11 07:34:17;;;;;;;13.63;5.93;;;;;;;;;;5012813;28;20061;-67
2022/12/11 07:36:47;;;;;;;13.13;6.25;;;;;;;;;;5029538;28;20080;-67
2022/12/11 07:39:16;;;;;;;23.50;9.30;;;;;;;;;;5032020;28;20393;-67
2022/12/11 07:41:46;;;;;;;17.90;8.40;;;;;;;;;;5012831;28;20068;-66
2022/12/11 07:44:17;;;;;;;33.17;12.15;;;;;;;;;;5029110;28;20068;-68
2022/12/11 07:46:46;;;;;;;37.30;14.25;;;;;;;;;;5028898;28;20045;-69
2022/12/11 07:49:16;;;;;;;47.88;16.20;;;;;;;;;;5028964;28;20501;-67
2022/12/11 07:51:46;;;;;;;45.58;16.52;;;;;;;;;;4996553;28;20061;-67
2022/12/11 07:54:16;;;;;;;52.60;16.58;;;;;;;;;;5029148;28;20053;-67
2022/12/11 07:56:47;;;;;;;43.25;17.20;;;;;;;;;;5028596;28;20065;-66
2022/12/11 07:59:21;;;;;;;35.97;14.05;;;;;;;;;;4979986;28;20164;-68
2022/12/11 08:01:52;;;;;;;53.42;15.20;;;;;;;;;;5028533;28;20583;-66
2022/12/11 08:04:21;;;;;;;48.42;16.60;;;;;;;;;;5027765;28;20054;-67
2022/12/11 08:06:51;;;;;;;47.03;16.15;;;;;;;;;;5012203;28;20517;-66
2022/12/11 08:09:21;;;;;;;55.67;19.02;;;;;;;;;;5028653;28;20085;-67
2022/12/11 08:11:51;;;;;;;46.70;15.60;;;;;;;;;;4995691;28;20053;-67
2022/12/11 08:14:21;;;;;;;45.58;16.25;;;;;;;;;;5028227;28;20066;-66
2022/12/11 08:16:50;;;;;;;44.40;14.95;;;;;;;;;;4980464;28;20058;-67
2022/12/11 08:19:20;;;;;;;33.67;12.35;;;;;;;;;;4980841;28;20061;-66
2022/12/11 08:21:50;;;;;;;33.90;13.32;;;;;;;;;;4979374;28;20065;-66
2022/12/11 08:24:19;;;;;;;41.30;14.60;;;;;;;;;;4979344;28;20061;-66
2022/12/11 08:26:50;;;;;;;48.65;13.98;;;;;;;;;;5028486;28;20064;-67
2022/12/11 08:29:20;;;;;;;42.63;13.93;;;;;;;;;;4988616;28;20076;-66
2022/12/11 08:31:50;;;;;;;40.53;13.55;;;;;;;;;;4924504;28;20050;-67
2022/12/11 08:34:19;;;;;;;43.75;13.95;;;;;;;;;;4988615;28;20195;-66
2022/12/11 08:36:49;;;;;;;38.63;12.68;;;;;;;;;;4988771;28;20057;-67
2022/12/11 08:39:19;;;;;;;38.58;12.05;;;;;;;;;;4988580;28;20070;-66
2022/12/11 08:41:49;;;;;;;30.17;10.48;;;;;;;;;;4988801;28;20069;-66
2022/12/11 08:44:18;;;;;;;24.92;9.18;;;;;;;;;;4956254;28;20058;-66
2022/12/11 08:46:48;;;;;;;18.00;7.68;;;;;;;;;;4988745;28;20509;-66
2022/12/11 08:49:17;;;;;;;14.90;6.13;;;;;;;;;;4988746;28;20058;-67
2022/12/11 08:51:47;;;;;;;13.43;6.22;;;;;;;;;;4968933;28;20059;-67
2022/12/11 08:54:17;;;;;;;14.80;5.50;;;;;;;;;;4969300;28;20438;-66
2022/12/11 08:56:49;;;;;;;15.82;7.32;;;;;;;;;;4969230;28;20167;-66
2022/12/11 08:59:26;;;;;;;11.32;5.72;;;;;;;;;;4969440;28;20419;-67
2022/12/11 09:01:56;;;;;;;14.43;6.22;;;;;;;;;;4969188;28;20054;-66
2022/12/11 09:04:25;;;;;;;9.75;5.10;;;;;;;;;;4969158;28;20055;-66
2022/12/11 09:06:54;;;;;;;7.85;4.47;;;;;;;;;;4971587;28;20429;-67
2022/12/11 09:09:24;;;;;;;9.88;5.47;;;;;;;;;;5008070;28;20054;-66
2022/12/11 09:11:55;;;;;;;10.38;5.38;;;;;;;;;;5008210;28;20077;-67
2022/12/11 09:14:24;;;;;;;9.80;4.78;;;;;;;;;;4978756;28;20058;-66
2022/12/11 09:16:54;;;;;;;10.45;4.78;;;;;;;;;;5027800;28;20069;-67
2022/12/11 09:19:23;;;;;;;9.50;5.15;;;;;;;;;;4978687;28;20061;-66
2022/12/11 09:22:00;;;;;;;9.82;4.88;;;;;;;;;;5027779;28;20053;-66
2022/12/11 09:24:30;;;;;;;9.43;5.30;;;;;;;;;;5011192;28;20053;-67
2022/12/11 09:27:00;;;;;;;9.55;4.75;;;;;;;;;;4995038;28;20064;-66
2022/12/11 09:29:29;;;;;;;9.23;4.93;;;;;;;;;;5043972;28;20054;-67
2022/12/11 09:31:59;;;;;;;10.48;5.50;;;;;;;;;;5011770;28;20156;-68
2022/12/11 09:34:28;;;;;;;10.88;5.05;;;;;;;;;;5027652;28;20061;-67
2022/12/11 09:36:58;;;;;;;11.05;5.35;;;;;;;;;;5028152;28;20054;-67
2022/12/11 09:39:28;;;;;;;13.90;6.82;;;;;;;;;;5044042;28;20053;-66
2022/12/11 09:42:25;;;;;;;16.05;8.20;;;;;;;;;;5027317;28;20057;-66
2022/12/11 09:44:59;;;;;;;20.77;9.52;;;;;;;;;;5030418;28;20038;-67
2022/12/11 09:47:44;;;;;;;22.60;9.65;;;;;;;;;;5011517;28;20053;-66
2022/12/11 09:50:26;;;;;;;21.42;9.57;;;;;;;;;;5027673;28;20045;-66
2022/12/11 09:53:20;;;;;;;21.85;8.35;;;;;;;;;;5030284;28;20405;-66
2022/12/11 09:55:59;;;;;;;31.02;10.93;;;;;;;;;;5029911;28;20192;-66
2022/12/11 09:58:52;;;;;;;34.72;12.27;;;;;;;;;;5031091;28;20156;-66
2022/12/11 10:01:33;;;;;;;32.50;11.98;;;;;;;;;;5031130;28;20053;-66
2022/12/11 10:04:15;;;;;;;35.85;13.05;;;;;;;;;;5031009;28;20054;-66
2022/12/11 10:07:06;;;;;;;37.42;13.32;;;;;;;;;;5030882;28;20057;-67
2022/12/11 10:09:46;;;;;;;38.50;13.50;;;;;;;;;;4998004;28;20057;-66
2022/12/11 10:12:44;;;;;;;48.83;13.70;;;;;;;;;;5030856;28;20061;-66
2022/12/11 10:15:39;;;;;;;52.70;14.98;;;;;;;;;;5014744;28;20605;-66
2022/12/11 10:18:20;;;;;;;53.40;15.50;;;;;;;;;;5010986;28;20057;-67
2022/12/11 10:20:52;;;;;;;52.50;15.77;;;;;;;;;;5011080;28;20529;-67
2022/12/11 10:23:37;;;;;;;58.72;17.15;;;;;;;;;;5010719;28;20548;-66
2022/12/11 10:26:09;;;;;;;48.67;17.90;;;;;;;;;;4994616;28;20057;-66
2022/12/11 10:28:39;;;;;;;59.00;17.27;;;;;;;;;;4990764;28;20054;-67
2022/12/11 10:31:22;;;;;;;57.50;19.15;;;;;;;;;;4991409;28;20065;-68
2022/12/11 10:33:59;;;;;;;43.67;17.23;;;;;;;;;;5009232;28;20054;-67
2022/12/11 10:36:38;;;;;;;44.40;14.45;;;;;;;;;;5010843;28;20068;-68
2022/12/11 10:39:19;;;;;;;34.80;13.73;;;;;;;;;;4978024;28;20108;-67
2022/12/11 10:41:51;;;;;;;44.33;14.50;;;;;;;;;;5010807;28;20445;-68
2022/12/11 10:44:24;;;;;;;50.58;17.40;;;;;;;;;;4994731;28;20050;-68
2022/12/11 10:47:12;;;;;;;63.53;18.15;;;;;;;;;;5010496;28;20062;-68
2022/12/11 10:49:54;;;;;;;53.90;15.70;;;;;;;;;;4978136;28;20451;-69
2022/12/11 10:52:28;;;;;;;49.45;16.00;;;;;;;;;;4974191;28;20054;-68
2022/12/11 10:55:02;;;;;;;52.47;17.30;;;;;;;;;;4959038;28;20055;-68
2022/12/11 10:57:38;;;;;;;58.40;17.25;;;;;;;;;;4952136;28;20421;-68
2022/12/11 11:00:28;;;;;;;50.95;16.73;;;;;;;;;;4952064;28;20055;-69
2022/12/11 11:02:58;;;;;;;49.72;17.85;;;;;;;;;;4951547;28;20201;-68
2022/12/11 11:05:36;;;;;;;47.83;17.88;;;;;;;;;;4954344;28;20054;-67
2022/12/11 11:08:17;;;;;;;57.42;18.90;;;;;;;;;;4971145;28;20055;-69
2022/12/11 11:10:57;;;;;;;56.08;18.40;;;;;;;;;;4970854;28;20073;-67
2022/12/11 11:13:29;;;;;;;56.83;19.38;;;;;;;;;;4971325;28;20062;-67
2022/12/11 11:16:01;;;;;;;57.33;18.52;;;;;;;;;;4986233;28;20058;-66
2022/12/11 11:18:32;;;;;;;54.38;19.80;;;;;;;;;;4971101;28;20043;-67
2022/12/11 11:21:03;;;;;;;52.03;18.13;;;;;;;;;;4970723;28;20039;-66
2022/12/11 11:23:33;;;;;;;55.28;17.70;;;;;;;;;;4970676;28;20431;-66
2022/12/11 11:26:11;;;;;;;50.22;17.52;;;;;;;;;;4954679;28;20047;-68
2022/12/11 11:28:57;;;;;;;54.42;18.83;;;;;;;;;;4970679;28;20058;-66
2022/12/11 11:31:33;;;;;;;50.13;17.88;;;;;;;;;;4977631;28;20060;-64
2022/12/11 11:34:09;;;;;;;50.92;17.30;;;;;;;;;;5068774;28;20503;-67
2022/12/11 11:36:39;;;;;;;52.70;19.00;;;;;;;;;;5069231;28;20056;-67
2022/12/11 11:39:32;;;;;;;46.20;16.27;;;;;;;;;;5035594;28;20162;-66
2022/12/11 11:42:18;;;;;;;45.78;17.05;;;;;;;;;;5036775;28;20508;-66
2022/12/11 11:45:20;;;;;;;44.95;17.60;;;;;;;;;;5068819;28;20049;-66
2022/12/11 11:48:23;;;;;;;44.17;15.50;;;;;;;;;;5068908;28;20037;-65
2022/12/11 11:50:56;;;;;;;40.65;15.38;;;;;;;;;;5068765;28;20547;-66
2022/12/11 11:53:40;;;;;;;39.70;15.40;;;;;;;;;;5052533;28;20056;-66
2022/12/11 11:56:36;;;;;;;35.92;13.13;;;;;;;;;;5004055;28;20060;-66
2022/12/11 11:59:24;;;;;;;30.10;12.55;;;;;;;;;;5052161;28;20059;-66
2022/12/11 12:01:56;;;;;;;26.85;10.57;;;;;;;;;;5035270;28;20063;-66
2022/12/11 12:04:35;;;;;;;26.90;10.60;;;;;;;;;;5035380;28;20083;-66
2022/12/11 12:07:49;;;;;;;23.55;10.32;;;;;;;;;;5068974;28;20531;-66
2022/12/11 12:10:30;;;;;;;24.85;8.80;;;;;;;;;;5068547;28;20408;-66
2022/12/11 12:13:16;;;;;;;28.10;9.85;;;;;;;;;;5012701;28;20057;-66
2022/12/11 12:16:17;;;;;;;25.30;9.07;;;;;;;;;;5030319;28;20505;-66
2022/12/11 12:19:13;;;;;;;20.80;8.68;;;;;;;;;;5012195;28;20057;-66
2022/12/11 12:21:49;;;;;;;21.85;9.30;;;;;;;;;;5031045;28;20045;-66
2022/12/11 12:24:27;;;;;;;24.10;10.13;;;;;;;;;;5012389;28;20065;-65
2022/12/11 12:27:27;;;;;;;22.60;8.73;;;;;;;;;;5028835;28;20053;-65
2022/12/11 12:30:18;;;;;;;17.65;8.27;;;;;;;;;;5042453;28;20053;-65
2022/12/11 12:33:39;;;;;;;17.88;7.95;;;;;;;;;;5030865;28;20056;-65
2022/12/11 12:36:36;;;;;;;19.75;7.55;;;;;;;;;;4992033;28;20058;-65
2022/12/11 12:39:35;;;;;;;17.73;7.40;;;;;;;;;;4982111;28;20133;-65
2022/12/11 12:42:23;;;;;;;15.35;7.38;;;;;;;;;;4969570;28;20639;-65
2022/12/11 12:45:06;;;;;;;13.48;6.32;;;;;;;;;;4953134;28;20042;-65
2022/12/11 12:47:37;;;;;;;13.15;5.55;;;;;;;;;;4950045;29;20069;-64
2022/12/11 12:50:18;;;;;;;10.15;5.40;;;;;;;;;;4950079;29;20055;-64
2022/12/11 12:52:50;;;;;;;7.20;3.22;;;;;;;;;;4950264;29;20070;-64
2022/12/11 12:55:27;;;;;;;;;;;;;;;;;;4934906;29;20051;-65
2022/12/11 12:58:04;;;;;;;5.53;3.10;;;;;;;;;;4950441;29;19922;-64
2022/12/11 13:00:38;;;;;;;4.13;2.35;;;;;;;;;;4950047;29;20062;-66
2022/12/11 13:03:14;;;;;;;4.40;2.55;;;;;;;;;;4903184;29;20059;-65
2022/12/11 13:06:48;;;;;;;5.13;2.40;;;;;;;;;;4949996;28;20495;-65
2022/12/11 13:09:27;;;;;;;5.40;3.00;;;;;;;;;;4837240;29;20062;-65
2022/12/11 13:11:58;;;;;;;4.93;2.38;;;;;;;;;;4833895;29;20073;-65
2022/12/11 13:14:31;;;;;;;3.72;2.47;;;;;;;;;;4834287;29;20058;-64
2022/12/11 13:17:33;;;;;;;5.35;2.30;;;;;;;;;;4832851;29;20058;-64
2022/12/11 13:20:19;;;;;;;4.03;1.60;;;;;;;;;;4837460;29;20408;-64
2022/12/11 13:23:14;;;;;;;4.15;2.30;;;;;;;;;;4837348;29;20081;-64
2022/12/11 13:25:57;;;;;;;2.70;1.77;;;;;;;;;;4876351;29;20090;-64
2022/12/11 13:28:26;;;;;;;2.88;2.20;;;;;;;;;;4893795;29;20074;-64
2022/12/11 13:30:58;;;;;;;5.18;2.17;;;;;;;;;;4896288;29;20060;-65
2022/12/11 13:33:29;;;;;;;2.80;1.60;;;;;;;;;;4896501;29;20064;-62
2022/12/11 13:36:11;;;;;;;1.98;1.50;;;;;;;;;;4896548;29;20071;-64
2022/12/11 13:39:16;;;;;;;5.70;1.60;;;;;;;;;;4896324;29;20509;-63
2022/12/11 13:41:54;;;;;;;2.47;1.55;;;;;;;;;;4898330;28;20060;-64
2022/12/11 13:44:32;;;;;;;1.45;1.08;;;;;;;;;;4972777;28;20534;-64
2022/12/11 13:47:03;;;;;;;3.47;1.60;;;;;;;;;;5014650;28;20502;-63
2022/12/11 13:49:39;;;;;;;2.05;1.42;;;;;;;;;;5048158;28;20505;-63
2022/12/11 13:52:22;;;;;;;1.95;1.35;;;;;;;;;;5034086;28;20060;-63
2022/12/11 13:54:54;;;;;;;3.03;1.40;;;;;;;;;;5033799;28;20405;-63
2022/12/11 13:57:27;;;;;;;3.28;1.30;;;;;;;;;;5033773;28;20044;-64
2022/12/11 13:59:58;;;;;;;3.38;1.48;;;;;;;;;;5033767;28;20052;-62
2022/12/11 14:02:33;;;;;;;2.38;1.65;;;;;;;;;;5031530;28;20820;-61
2022/12/11 14:05:10;;;;;;;3.20;1.50;;;;;;;;;;5033602;28;20393;-61
2022/12/11 14:07:52;;;;;;;2.50;1.42;;;;;;;;;;5033873;28;20046;-61
2022/12/11 14:10:26;;;;;;;2.50;1.40;;;;;;;;;;5033588;28;20049;-61
2022/12/11 14:12:56;;;;;;;2.97;1.40;;;;;;;;;;5033678;28;20068;-62
2022/12/11 14:15:27;;;;;;;3.58;1.65;;;;;;;;;;5047978;28;20049;-62
2022/12/11 14:17:58;;;;;;;3.00;1.50;;;;;;;;;;5014551;28;20061;-61
2022/12/11 14:20:33;;;;;;;4.05;1.52;;;;;;;;;;5033569;28;20045;-62
2022/12/11 14:23:18;;;;;;;3.05;2.10;;;;;;;;;;5014477;28;20730;-62
2022/12/11 14:26:03;;;;;;;1.92;1.63;;;;;;;;;;5033094;28;20044;-61
2022/12/11 14:28:38;;;;;;;2.05;1.38;;;;;;;;;;5031170;28;20080;-62
2022/12/11 14:31:08;;;;;;;4.68;2.08;;;;;;;;;;5033357;28;20048;-61
2022/12/11 14:33:42;;;;;;;2.70;1.83;;;;;;;;;;5033061;28;20049;-61
2022/12/11 14:36:16;;;;;;;1.73;1.40;;;;;;;;;;5033392;28;20060;-61
2022/12/11 14:38:51;;;;;;;1.88;1.20;;;;;;;;;;5047312;28;20692;-62
2022/12/11 14:41:27;;;;;;;2.05;1.20;;;;;;;;;;5049254;28;20412;-61
2022/12/11 14:44:03;;;;;;;2.08;1.45;;;;;;;;;;5033572;28;20057;-61
2022/12/11 14:46:52;;;;;;;3.58;1.83;;;;;;;;;;5016924;28;20045;-61
2022/12/11 14:49:45;;;;;;;3.47;1.95;;;;;;;;;;5050222;28;20588;-61
2022/12/11 14:52:19;;;;;;;2.75;1.60;;;;;;;;;;5033207;28;20705;-61
2022/12/11 14:55:13;;;;;;;3.67;1.50;;;;;;;;;;5050115;28;20045;-61
2022/12/11 14:57:47;;;;;;;1.92;1.08;;;;;;;;;;5016954;28;20665;-61
2022/12/11 15:00:26;;;;;;;2.75;1.75;;;;;;;;;;5050165;28;20061;-61
2022/12/11 15:03:00;;;;;;;2.47;1.45;;;;;;;;;;5049944;28;20053;-61
2022/12/11 15:05:31;;;;;;;2.22;1.35;;;;;;;;;;5033035;28;20603;-61
2022/12/11 15:08:11;;;;;;;3.17;1.42;;;;;;;;;;5049982;28;20052;-61
2022/12/11 15:11:02;;;;;;;2.17;1.63;;;;;;;;;;5049764;28;20511;-61
2022/12/11 15:13:33;;;;;;;2.78;1.80;;;;;;;;;;5049761;28;20519;-61
2022/12/11 15:16:06;;;;;;;3.33;2.10;;;;;;;;;;5033454;28;20056;-61
2022/12/11 15:18:40;;;;;;;2.92;1.73;;;;;;;;;;5012817;28;20505;-61
2022/12/11 15:21:11;;;;;;;2.50;1.70;;;;;;;;;;5032276;28;20053;-61
2022/12/11 15:23:52;;;;;;;1.50;1.30;;;;;;;;;;5046027;28;20069;-61
2022/12/11 15:26:54;;;;;;;2.78;1.65;;;;;;;;;;5032142;28;20520;-61
2022/12/11 15:29:30;;;;;;;4.45;2.22;;;;;;;;;;5042583;28;20126;-61
2022/12/11 15:32:18;;;;;;;4.75;2.50;;;;;;;;;;4993410;28;20530;-61
2022/12/11 15:34:51;;;;;;;3.47;2.22;;;;;;;;;;5009623;28;20058;-61
2022/12/11 15:37:27;;;;;;;3.72;2.50;;;;;;;;;;5009688;28;20049;-62
2022/12/11 15:40:00;;;;;;;4.18;2.13;;;;;;;;;;5009519;28;20054;-63